Time;durP1;ratioP1;P1;durP2;ratioP2;P2;SDS_P1;SDS_P2;PMS_P1;PMS_P2;Temp;Humidity;BMP_temperature;BMP_pressure;BME280_temperature;BME280_humidity;BME280_pressure;Samples;Min_cycle;Max_cycle;Signal;HPM_P1;HPM_P2
2021/09/17 00:01:06;;;;;;;5.57;5.37;;;;;;;12.22;94.40;101326.44;4419978;32;20087;-70
2021/09/17 00:03:31;;;;;;;4.70;4.50;;;;;;;12.25;94.46;101318.41;4431559;32;20593;-69
2021/09/17 00:05:56;;;;;;;5.65;5.45;;;;;;;12.29;94.22;101324.38;4422659;32;20151;-69
2021/09/17 00:08:22;;;;;;;4.80;4.60;;;;;;;12.30;94.15;101323.44;4434106;32;20084;-68
2021/09/17 00:10:47;;;;;;;4.70;4.50;;;;;;;11.95;94.49;101265.53;4412842;32;20586;-69
2021/09/17 00:13:13;;;;;;;4.80;4.60;;;;;;;12.33;94.42;101321.50;4408918;32;20708;-68
2021/09/17 00:15:38;;;;;;;4.60;4.40;;;;;;;12.29;94.72;101311.22;4424112;32;20068;-68
2021/09/17 00:18:03;;;;;;;5.97;5.68;;;;;;;12.43;94.47;101324.53;4416937;32;20061;-69
2021/09/17 00:20:29;;;;;;;4.80;4.60;;;;;;;12.44;94.32;101326.25;4445181;32;20090;-68
2021/09/17 00:22:54;;;;;;;5.28;5.07;;;;;;;12.45;94.00;101321.81;4428636;32;20264;-70
2021/09/17 00:25:20;;;;;;;4.50;4.30;;;;;;;12.49;93.65;101326.03;4434689;32;20566;-69
2021/09/17 00:27:45;;;;;;;4.55;4.35;;;;;;;12.48;93.33;101319.88;4410507;32;20073;-69
2021/09/17 00:30:11;;;;;;;5.28;5.07;;;;;;;12.36;93.09;101297.66;4407266;32;20442;-69
2021/09/17 00:32:36;;;;;;;4.97;4.78;;;;;;;12.54;92.80;101324.84;4434060;32;20084;-69
2021/09/17 00:35:03;;;;;;;6.25;5.95;;;;;;;12.59;92.80;101308.84;4406562;32;20474;-69
2021/09/17 00:37:28;;;;;;;4.60;4.40;;;;;;;12.66;93.51;101318.09;4432941;32;20369;-68
2021/09/17 00:39:53;;;;;;;5.68;5.43;;;;;;;12.72;92.83;101317.78;4421770;32;20072;-69
2021/09/17 00:42:19;;;;;;;4.80;4.60;;;;;;;12.76;92.68;101315.84;4421258;32;20620;-69
2021/09/17 00:44:44;;;;;;;4.80;4.60;;;;;;;12.70;92.91;101301.22;4412789;32;20065;-69
2021/09/17 00:47:09;;;;;;;5.00;4.80;;;;;;;12.68;92.51;101289.91;4408375;32;20274;-69
2021/09/17 00:49:35;;;;;;;4.80;4.60;;;;;;;12.69;92.37;101286.34;4421662;32;20499;-69
2021/09/17 00:52:00;;;;;;;6.05;5.75;;;;;;;12.91;92.58;101309.81;4410056;32;20349;-69
2021/09/17 00:54:26;;;;;;;4.80;4.60;;;;;;;12.94;92.58;101312.25;4421917;32;20103;-69
2021/09/17 00:56:51;;;;;;;5.10;4.90;;;;;;;12.98;92.29;101315.59;4423570;32;20075;-69
2021/09/17 00:59:17;;;;;;;5.03;4.82;;;;;;;12.90;92.25;101294.06;4419332;32;20090;-69
2021/09/17 01:01:43;;;;;;;4.80;4.60;;;;;;;13.02;92.27;101305.75;4408960;32;20085;-69
2021/09/17 01:04:09;;;;;;;5.37;5.12;;;;;;;13.02;92.10;101303.97;4421286;32;20633;-69
2021/09/17 01:06:34;;;;;;;4.60;4.40;;;;;;;13.03;92.20;101310.06;4431535;32;20586;-70
2021/09/17 01:09:00;;;;;;;6.18;5.87;;;;;;;13.04;92.12;101307.38;4433702;32;20134;-69
2021/09/17 01:11:25;;;;;;;4.65;4.45;;;;;;;13.05;92.47;101308.22;4424503;32;20491;-70
2021/09/17 01:13:50;;;;;;;4.80;4.60;;;;;;;13.07;92.40;101301.06;4419641;32;20080;-70
2021/09/17 01:16:16;;;;;;;4.55;4.35;;;;;;;13.09;92.50;101299.22;4410656;32;20855;-69
2021/09/17 01:18:41;;;;;;;4.60;4.40;;;;;;;13.09;92.47;101305.34;4407510;32;20064;-69
2021/09/17 01:21:06;;;;;;;5.60;5.40;;;;;;;13.12;92.49;101304.31;4423921;32;20139;-70
2021/09/17 01:23:32;;;;;;;4.70;4.50;;;;;;;13.13;92.31;101290.22;4408407;32;20586;-69
2021/09/17 01:25:57;;;;;;;6.37;6.07;;;;;;;13.11;92.33;101282.41;4409904;32;20107;-69
2021/09/17 01:28:27;;;;;;;4.47;4.28;;;;;;;13.13;92.58;101296.34;4409531;32;20072;-69
2021/09/17 01:30:52;;;;;;;4.50;4.30;;;;;;;13.16;92.25;101293.53;4409734;32;20072;-69
2021/09/17 01:33:18;;;;;;;4.60;4.40;;;;;;;13.17;92.38;101294.41;4435076;32;20069;-69
2021/09/17 01:35:43;;;;;;;4.70;4.50;;;;;;;12.95;92.27;101247.28;4411091;32;20090;-69
2021/09/17 01:38:08;;;;;;;5.62;5.32;;;;;;;13.18;92.33;101290.81;4417048;32;20133;-69
2021/09/17 01:40:34;;;;;;;5.20;5.00;;;;;;;13.18;92.23;101289.03;4416671;32;20112;-69
2021/09/17 01:42:59;;;;;;;6.35;6.05;;;;;;;13.20;92.32;101288.13;4423061;32;20139;-70
2021/09/17 01:45:25;;;;;;;4.82;4.62;;;;;;;13.22;92.36;101292.34;4406226;32;20072;-69
2021/09/17 01:47:50;;;;;;;5.15;4.85;;;;;;;13.24;92.40;101284.37;4424440;32;20072;-69
2021/09/17 01:50:15;;;;;;;4.80;4.60;;;;;;;13.25;92.57;101286.06;4408322;32;20091;-69
2021/09/17 01:52:41;;;;;;;4.50;4.30;;;;;;;13.27;92.81;101282.44;4414110;32;20095;-69
2021/09/17 01:55:06;;;;;;;5.40;5.20;;;;;;;13.28;92.41;101273.56;4381691;32;20487;-69
2021/09/17 01:57:32;;;;;;;5.00;4.80;;;;;;;12.94;93.12;101216.56;4405189;32;20096;-69
2021/09/17 01:59:57;;;;;;;6.25;5.95;;;;;;;13.13;93.17;101253.34;4409473;32;20483;-69
2021/09/17 02:02:23;;;;;;;4.50;4.30;;;;;;;13.22;92.57;101246.72;4408117;32;20088;-69
2021/09/17 02:04:51;;;;;;;4.90;4.70;;;;;;;13.34;92.67;101283.81;4410890;32;20090;-70
2021/09/17 02:07:17;;;;;;;5.20;5.00;;;;;;;13.36;93.14;101260.00;4408506;32;20105;-69
2021/09/17 02:09:42;;;;;;;5.37;4.95;;;;;;;13.38;92.71;101259.94;4407600;32;20092;-69
2021/09/17 02:12:08;;;;;;;5.37;5.18;;;;;;;13.38;92.96;101268.69;4409733;32;20285;-69
2021/09/17 02:14:33;;;;;;;4.90;4.70;;;;;;;13.39;93.21;101262.50;4421466;32;20094;-70
2021/09/17 02:16:58;;;;;;;6.07;5.78;;;;;;;13.21;92.82;101243.22;4405989;32;20633;-69
2021/09/17 02:19:24;;;;;;;4.80;4.60;;;;;;;13.41;93.33;101265.91;4422553;32;20069;-69
2021/09/17 02:21:50;;;;;;;4.80;4.60;;;;;;;13.41;93.03;101262.38;4405335;32;20123;-71
2021/09/17 02:24:15;;;;;;;4.90;4.70;;;;;;;13.39;93.03;101267.78;4423762;32;20566;-69
2021/09/17 02:26:40;;;;;;;4.70;4.50;;;;;;;13.41;93.19;101263.25;4416496;32;20077;-69
2021/09/17 02:29:06;;;;;;;6.40;6.10;;;;;;;13.39;93.48;101259.84;4414282;32;20077;-69
2021/09/17 02:31:31;;;;;;;4.57;4.37;;;;;;;13.40;93.83;101258.91;4411506;32;20593;-69
2021/09/17 02:33:56;;;;;;;5.30;5.00;;;;;;;13.40;93.93;101256.28;4420606;32;20072;-69
2021/09/17 02:36:22;;;;;;;4.70;4.50;;;;;;;13.42;94.27;101254.41;4410534;32;20653;-69
2021/09/17 02:38:47;;;;;;;4.70;4.50;;;;;;;13.42;93.60;101246.50;4408462;32;20079;-69
2021/09/17 02:41:12;;;;;;;4.93;4.65;;;;;;;13.41;93.71;101249.22;4406931;32;20084;-69
2021/09/17 02:43:38;;;;;;;4.72;4.53;;;;;;;13.40;93.88;101251.00;4420375;32;20072;-69
2021/09/17 02:46:03;;;;;;;5.57;5.37;;;;;;;13.35;93.55;101255.69;4411083;32;20076;-70
2021/09/17 02:48:28;;;;;;;4.60;4.40;;;;;;;13.30;93.73;101248.00;4406024;32;20424;-68
2021/09/17 02:50:54;;;;;;;5.95;5.65;;;;;;;13.30;93.95;101249.81;4407929;32;20137;-69
2021/09/17 02:53:19;;;;;;;5.32;5.00;;;;;;;13.28;93.91;101246.38;4407250;32;20185;-69
2021/09/17 02:55:45;;;;;;;5.00;4.80;;;;;;;13.27;94.37;101245.53;4407384;32;20064;-69
2021/09/17 02:58:10;;;;;;;4.72;4.53;;;;;;;13.28;94.29;101241.09;4415769;32;20912;-69
2021/09/17 03:00:39;;;;;;;4.90;4.70;;;;;;;13.23;94.51;101222.91;4409066;32;20102;-69
2021/09/17 03:03:04;;;;;;;6.32;5.87;;;;;;;13.04;94.55;101194.06;4419540;32;20094;-69
2021/09/17 03:05:30;;;;;;;4.72;4.53;;;;;;;13.33;94.25;101232.03;4407860;32;20917;-69
2021/09/17 03:07:55;;;;;;;6.05;5.78;;;;;;;13.35;94.38;101235.44;4405323;32;20157;-69
2021/09/17 03:10:20;;;;;;;4.70;4.50;;;;;;;13.36;94.23;101223.94;4405543;32;20060;-69
2021/09/17 03:12:46;;;;;;;4.80;4.60;;;;;;;13.25;94.46;101202.59;4411230;32;20367;-69
2021/09/17 03:15:11;;;;;;;5.07;4.87;;;;;;;13.35;94.67;101232.81;4406956;32;20069;-69
2021/09/17 03:17:36;;;;;;;5.15;4.95;;;;;;;13.36;94.44;101225.75;4424039;32;20088;-69
2021/09/17 03:20:02;;;;;;;5.78;5.55;;;;;;;13.36;95.02;101226.59;4408416;32;20064;-69
2021/09/17 03:22:27;;;;;;;4.70;4.50;;;;;;;13.37;94.45;101230.09;4419193;32;20305;-69
2021/09/17 03:24:53;;;;;;;6.45;6.15;;;;;;;13.38;94.76;101226.50;4418976;32;20080;-69
2021/09/17 03:27:18;;;;;;;4.87;4.68;;;;;;;13.38;95.17;101236.22;4421886;32;20126;-69
2021/09/17 03:29:43;;;;;;;5.15;4.85;;;;;;;13.39;94.88;101232.63;4408995;32;20497;-69
2021/09/17 03:32:09;;;;;;;5.53;5.10;;;;;;;13.39;95.21;101235.25;4420706;32;20185;-69
2021/09/17 03:34:35;;;;;;;4.85;4.65;;;;;;;13.37;94.88;101232.72;4412737;32;20437;-69
2021/09/17 03:37:01;;;;;;;6.57;6.28;;;;;;;13.36;94.83;101231.00;4421551;32;20068;-69
2021/09/17 03:39:26;;;;;;;4.97;4.78;;;;;;;13.36;95.15;101229.22;4408367;32;20076;-69
2021/09/17 03:41:51;;;;;;;5.53;5.28;;;;;;;13.38;95.45;101231.78;4424416;32;20082;-69
2021/09/17 03:44:17;;;;;;;4.93;4.72;;;;;;;13.38;95.17;101223.87;4408419;32;20626;-69
2021/09/17 03:46:42;;;;;;;5.25;4.85;;;;;;;13.38;95.34;101223.03;4411503;32;20451;-69
2021/09/17 03:49:08;;;;;;;5.80;5.50;;;;;;;13.37;95.24;101219.56;4418596;32;20692;-69
2021/09/17 03:51:33;;;;;;;5.57;5.07;;;;;;;12.17;95.30;101037.25;4420562;32;20820;-69
2021/09/17 03:53:59;;;;;;;6.75;6.45;;;;;;;13.33;95.27;101210.97;4408825;32;20064;-69
2021/09/17 03:56:24;;;;;;;4.95;4.75;;;;;;;13.33;95.05;101207.44;4419774;32;20569;-70
2021/09/17 03:58:49;;;;;;;4.93;4.70;;;;;;;13.34;95.12;101212.63;4415976;32;20125;-70
2021/09/17 04:01:15;;;;;;;5.00;4.80;;;;;;;13.36;95.69;101208.12;4410067;32;20072;-69
2021/09/17 04:03:40;;;;;;;5.82;5.53;;;;;;;13.39;95.07;101206.25;4422170;32;20491;-69
2021/09/17 04:06:05;;;;;;;6.55;6.25;;;;;;;13.39;95.42;101206.25;4407769;32;20065;-69
2021/09/17 04:08:31;;;;;;;5.20;4.90;;;;;;;13.39;95.11;101208.91;4432614;32;20680;-68
2021/09/17 04:10:56;;;;;;;6.45;6.15;;;;;;;13.07;95.20;101164.94;4405120;32;20084;-66
2021/09/17 04:13:21;;;;;;;4.93;4.62;;;;;;;13.38;95.34;101204.56;4424012;32;20056;-69
2021/09/17 04:15:47;;;;;;;5.70;5.40;;;;;;;13.37;95.21;101203.72;4418657;32;20149;-69
2021/09/17 04:18:12;;;;;;;4.70;4.50;;;;;;;13.36;95.39;101202.84;4407066;32;20099;-69
2021/09/17 04:20:38;;;;;;;5.68;5.28;;;;;;;13.37;95.44;101206.37;4421647;32;20482;-68
2021/09/17 04:23:03;;;;;;;6.40;6.00;;;;;;;13.39;95.21;101206.25;4405223;32;20102;-69
2021/09/17 04:25:28;;;;;;;4.90;4.60;;;;;;;13.38;95.55;101207.22;4425679;32;20068;-68
2021/09/17 04:27:54;;;;;;;6.50;6.20;;;;;;;12.91;95.47;101141.22;4406853;32;20064;-69
2021/09/17 04:30:20;;;;;;;4.75;4.55;;;;;;;13.38;95.20;101200.16;4412011;32;20072;-69
2021/09/17 04:32:45;;;;;;;4.72;4.53;;;;;;;13.39;95.84;101200.97;4408587;32;20535;-69
2021/09/17 04:35:11;;;;;;;5.22;4.93;;;;;;;12.30;95.51;101021.62;4404939;32;20463;-69
2021/09/17 04:37:41;;;;;;;5.05;4.85;;;;;;;13.39;95.83;101204.50;4435220;32;20084;-69
2021/09/17 04:40:07;;;;;;;6.10;5.80;;;;;;;13.38;96.06;101200.16;4404361;32;20870;-69
2021/09/17 04:42:32;;;;;;;4.90;4.70;;;;;;;13.38;95.72;101204.56;4419916;32;20115;-68
2021/09/17 04:44:57;;;;;;;6.22;5.93;;;;;;;13.39;95.85;101204.50;4393265;32;20093;-69
2021/09/17 04:47:23;;;;;;;4.90;4.70;;;;;;;13.40;96.17;101205.34;4345114;32;20088;-69
2021/09/17 04:49:48;;;;;;;5.37;4.97;;;;;;;13.39;95.47;101207.13;4399532;32;20551;-69
2021/09/17 04:52:13;;;;;;;5.15;4.95;;;;;;;12.47;96.17;101061.97;4341654;32;20220;-69
2021/09/17 04:54:40;;;;;;;4.95;4.75;;;;;;;13.41;96.55;101205.25;4392175;32;20146;-69
2021/09/17 04:57:05;;;;;;;7.37;6.80;;;;;;;13.42;96.27;101209.59;4343464;32;20081;-69
2021/09/17 04:59:30;;;;;;;4.87;4.68;;;;;;;13.43;96.21;101203.37;4397824;32;20074;-69
2021/09/17 05:01:56;;;;;;;6.47;6.18;;;;;;;13.45;96.57;101214.69;4398422;32;20176;-69
2021/09/17 05:04:21;;;;;;;5.00;4.80;;;;;;;13.46;96.28;101213.75;4395032;32;20073;-69
2021/09/17 05:06:47;;;;;;;4.95;4.75;;;;;;;13.48;96.75;101211.88;4401189;32;20177;-69
2021/09/17 05:09:12;;;;;;;5.00;4.80;;;;;;;13.50;96.42;101220.53;4379053;32;20719;-69
2021/09/17 05:11:37;;;;;;;4.93;4.72;;;;;;;13.52;96.37;101216.03;4410341;32;20497;-69
2021/09/17 05:14:03;;;;;;;6.75;6.37;;;;;;;13.52;96.07;101213.41;4342853;32;20081;-69
2021/09/17 05:16:32;;;;;;;5.40;5.10;;;;;;;13.53;95.54;101217.75;4390679;32;20139;-68
2021/09/17 05:18:57;;;;;;;6.45;6.15;;;;;;;13.55;95.62;101217.63;4414860;32;20070;-69
2021/09/17 05:21:22;;;;;;;4.90;4.70;;;;;;;13.50;95.87;101207.34;4345175;32;20614;-69
2021/09/17 05:23:48;;;;;;;4.70;4.50;;;;;;;13.56;95.88;101227.25;4388039;32;20081;-69
2021/09/17 05:26:13;;;;;;;5.32;5.03;;;;;;;13.54;95.74;101216.78;4396929;32;20070;-69
2021/09/17 05:28:38;;;;;;;5.10;4.90;;;;;;;13.50;96.05;101206.50;4420988;32;20532;-69
2021/09/17 05:31:04;;;;;;;6.75;6.32;;;;;;;13.53;95.97;101217.75;4394711;32;20078;-69
2021/09/17 05:33:29;;;;;;;4.90;4.70;;;;;;;13.54;96.26;101219.44;4342686;32;20582;-69
2021/09/17 05:35:55;;;;;;;6.37;6.07;;;;;;;13.56;96.15;101222.00;4394482;32;20085;-69
2021/09/17 05:38:20;;;;;;;4.97;4.78;;;;;;;13.59;96.47;101223.59;4342826;32;20084;-69
2021/09/17 05:40:45;;;;;;;5.12;4.93;;;;;;;13.61;96.38;101217.31;4396237;32;20449;-69
2021/09/17 05:43:11;;;;;;;6.60;6.20;;;;;;;13.64;95.97;101225.03;4395776;32;20062;-69
2021/09/17 05:45:36;;;;;;;5.12;4.85;;;;;;;13.68;96.02;101220.44;4404218;32;20533;-68
2021/09/17 05:48:02;;;;;;;6.07;5.78;;;;;;;13.59;95.44;101207.78;4400113;32;20074;-69
2021/09/17 05:50:27;;;;;;;5.00;4.80;;;;;;;13.72;95.78;101221.97;4346199;32;20073;-69
2021/09/17 05:52:52;;;;;;;6.12;5.22;;;;;;;13.40;95.52;101171.91;4400370;32;20687;-69
2021/09/17 05:55:18;;;;;;;5.90;5.20;;;;;;;13.76;95.24;101226.97;4343973;32;21430;-69
2021/09/17 05:57:43;;;;;;;5.22;4.93;;;;;;;13.76;95.67;101226.97;4397767;32;20118;-69
2021/09/17 06:00:10;;;;;;;7.07;6.78;;;;;;;13.73;95.32;101226.31;4393892;32;20134;-69
2021/09/17 06:02:35;;;;;;;5.00;4.80;;;;;;;13.81;95.03;101228.50;4419398;32;20083;-69
2021/09/17 06:05:01;;;;;;;6.18;5.87;;;;;;;13.83;95.31;101231.91;4396552;32;20065;-69
2021/09/17 06:07:26;;;;;;;4.87;4.68;;;;;;;13.88;94.67;101228.06;4422569;32;20084;-68
2021/09/17 06:09:51;;;;;;;5.57;5.32;;;;;;;13.89;94.99;101227.16;4401533;32;20078;-69
2021/09/17 06:12:17;;;;;;;5.10;4.90;;;;;;;13.86;94.33;101221.19;4339161;32;20082;-69
2021/09/17 06:14:42;;;;;;;5.10;4.80;;;;;;;13.95;94.60;101236.47;4407505;32;20116;-69
2021/09/17 06:17:07;;;;;;;6.22;5.93;;;;;;;13.96;94.21;101238.19;4360384;32;20138;-69
2021/09/17 06:19:33;;;;;;;4.82;4.62;;;;;;;13.98;94.17;101231.03;4346226;32;20077;-69
2021/09/17 06:21:58;;;;;;;5.30;5.10;;;;;;;14.00;94.47;101226.50;4403393;32;20078;-69
2021/09/17 06:24:23;;;;;;;5.50;5.20;;;;;;;14.03;94.15;101229.00;4345742;32;20065;-69
2021/09/17 06:26:49;;;;;;;5.00;4.80;;;;;;;14.02;93.48;101237.81;4400815;32;20468;-69
2021/09/17 06:29:15;;;;;;;4.57;4.37;;;;;;;14.00;93.48;101229.16;4395915;32;20350;-69
2021/09/17 06:31:40;;;;;;;5.65;5.30;;;;;;;13.98;93.85;101230.19;4411416;32;20076;-69
2021/09/17 06:34:06;;;;;;;6.87;6.47;;;;;;;13.96;93.84;101227.63;4395348;32;20185;-70
2021/09/17 06:36:31;;;;;;;5.20;4.78;;;;;;;13.98;93.54;101232.81;4384076;32;20062;-69
2021/09/17 06:38:57;;;;;;;7.25;6.85;;;;;;;13.96;93.68;101227.63;4395745;32;20465;-69
2021/09/17 06:41:23;;;;;;;4.90;4.70;;;;;;;13.94;93.41;101227.72;4383141;32;20062;-69
2021/09/17 06:43:48;;;;;;;5.32;5.03;;;;;;;13.65;93.53;101181.94;4411440;32;20904;-70
2021/09/17 06:46:14;;;;;;;5.65;5.35;;;;;;;13.96;93.68;101233.75;4419548;32;20122;-69
2021/09/17 06:48:40;;;;;;;5.12;4.90;;;;;;;13.62;93.18;101160.13;4409076;32;20108;-69
2021/09/17 06:51:05;;;;;;;6.60;6.20;;;;;;;14.09;93.00;101227.75;4413815;32;20640;-69
2021/09/17 06:53:31;;;;;;;5.43;5.22;;;;;;;14.18;93.08;101229.03;4394922;32;20096;-69
2021/09/17 06:55:56;;;;;;;5.50;5.10;;;;;;;14.19;92.33;101217.50;4413946;32;20072;-69
2021/09/17 06:58:28;;;;;;;5.70;5.20;;;;;;;14.21;92.31;101239.38;4397416;32;20076;-69
2021/09/17 07:00:53;;;;;;;6.50;6.20;;;;;;;14.24;92.88;101226.87;4396531;32;20081;-70
2021/09/17 07:03:19;;;;;;;6.10;5.70;;;;;;;14.29;92.03;101222.19;4429110;32;20161;-69
2021/09/17 07:05:44;;;;;;;5.32;5.05;;;;;;;14.33;92.67;101225.47;4418612;32;20076;-69
2021/09/17 07:08:09;;;;;;;5.53;5.22;;;;;;;14.35;92.02;101223.56;4421120;32;20193;-69
2021/09/17 07:10:36;;;;;;;5.80;5.50;;;;;;;14.40;91.93;101223.31;4411118;32;20522;-69
2021/09/17 07:13:01;;;;;;;6.97;6.68;;;;;;;14.46;91.94;101221.16;4408533;32;20076;-69
2021/09/17 07:15:27;;;;;;;5.25;5.05;;;;;;;14.54;91.19;101226.81;4425234;32;20597;-69
2021/09/17 07:17:52;;;;;;;6.05;5.78;;;;;;;14.16;91.45;101155.19;4406764;32;20068;-69
2021/09/17 07:20:17;;;;;;;5.37;5.07;;;;;;;14.62;91.24;101209.69;4427512;32;20443;-69
2021/09/17 07:22:43;;;;;;;5.87;5.57;;;;;;;14.68;91.10;101220.72;4410053;32;20080;-69
2021/09/17 07:25:08;;;;;;;6.47;6.07;;;;;;;14.78;91.54;101221.03;4409481;32;20552;-69
2021/09/17 07:27:34;;;;;;;5.75;5.43;;;;;;;14.85;90.96;101214.41;4425562;32;20210;-69
2021/09/17 07:29:59;;;;;;;6.37;6.07;;;;;;;14.87;90.19;101214.31;4403192;32;20242;-69
2021/09/17 07:32:24;;;;;;;5.30;5.00;;;;;;;13.98;89.79;101067.41;4424119;32;20297;-69
2021/09/17 07:34:50;;;;;;;5.30;5.00;;;;;;;13.73;89.06;101037.25;4407911;32;20107;-70
2021/09/17 07:37:15;;;;;;;5.30;5.00;;;;;;;15.00;89.68;101212.63;4435563;32;20205;-68
2021/09/17 07:39:41;;;;;;;5.12;4.93;;;;;;;15.01;89.30;101198.44;4425722;32;20669;-69
2021/09/17 07:42:07;;;;;;;6.72;6.43;;;;;;;15.21;88.39;101209.56;4420868;32;20083;-69
2021/09/17 07:44:33;;;;;;;5.35;5.12;;;;;;;15.30;87.75;101212.47;4412009;32;20092;-69
2021/09/17 07:46:58;;;;;;;6.75;6.45;;;;;;;15.29;86.96;101204.62;4403598;32;20196;-69
2021/09/17 07:49:24;;;;;;;5.57;5.28;;;;;;;15.37;87.48;101218.19;4383016;32;20092;-69
2021/09/17 07:51:49;;;;;;;5.53;5.25;;;;;;;15.30;86.94;101203.69;4389192;32;20219;-69
2021/09/17 07:54:14;;;;;;;5.72;5.43;;;;;;;15.48;86.29;101221.03;4407203;32;20628;-69
2021/09/17 07:56:40;;;;;;;5.47;5.25;;;;;;;15.52;86.03;101222.53;4413009;32;20083;-69
2021/09/17 07:59:05;;;;;;;6.65;6.32;;;;;;;15.54;85.93;101225.06;4408149;32;20550;-69
2021/09/17 08:01:31;;;;;;;5.60;5.30;;;;;;;15.64;86.66;101220.03;4422575;32;20072;-69
2021/09/17 08:03:56;;;;;;;6.37;6.07;;;;;;;15.74;86.89;101215.88;4410474;32;20072;-69
2021/09/17 08:06:21;;;;;;;5.32;5.12;;;;;;;15.78;85.54;101216.53;4422317;32;20458;-69
2021/09/17 08:08:47;;;;;;;6.40;5.90;;;;;;;15.90;85.45;101221.84;4412521;32;20983;-69
2021/09/17 08:11:12;;;;;;;5.65;5.35;;;;;;;16.02;85.08;101214.03;4421533;32;20069;-69
2021/09/17 08:13:37;;;;;;;5.53;5.12;;;;;;;16.14;85.13;101216.69;4408963;32;20337;-69
2021/09/17 08:16:03;;;;;;;7.10;6.75;;;;;;;16.04;84.22;101178.56;4423326;32;20084;-69
2021/09/17 08:18:29;;;;;;;5.50;5.10;;;;;;;16.33;83.94;101216.28;4434045;32;20069;-69
2021/09/17 08:20:57;;;;;;;6.75;6.40;;;;;;;16.29;81.94;101217.44;4411471;32;20507;-69
2021/09/17 08:23:23;;;;;;;6.20;5.80;;;;;;;16.25;82.67;101212.47;4408454;32;20079;-69
2021/09/17 08:25:52;;;;;;;5.68;5.43;;;;;;;15.23;83.28;101041.09;4378539;32;20080;-69
2021/09/17 08:28:18;;;;;;;5.72;5.43;;;;;;;16.46;82.96;101207.53;4411021;32;20479;-69
2021/09/17 08:30:43;;;;;;;5.75;5.45;;;;;;;16.60;81.77;101210.06;4399064;32;20076;-69
2021/09/17 08:33:08;;;;;;;6.28;5.97;;;;;;;16.68;81.56;101197.13;4404508;32;20064;-69
2021/09/17 08:35:34;;;;;;;5.62;5.32;;;;;;;16.83;81.31;101195.22;4421624;32;20072;-69
2021/09/17 08:37:59;;;;;;;6.70;6.40;;;;;;;16.94;81.06;101200.63;4408965;32;20080;-69
2021/09/17 08:40:28;;;;;;;6.15;5.85;;;;;;;17.08;80.35;101204.94;4424440;32;20091;-69
2021/09/17 08:42:54;;;;;;;6.80;6.40;;;;;;;17.24;80.79;101206.47;4408964;32;20186;-69
2021/09/17 08:45:19;;;;;;;5.47;5.18;;;;;;;17.31;79.63;101199.78;4414603;32;20064;-69
2021/09/17 08:47:48;;;;;;;5.37;5.18;;;;;;;17.40;79.41;101195.59;4404560;32;20068;-69
2021/09/17 08:50:13;;;;;;;5.90;5.60;;;;;;;17.35;78.90;101195.94;4419818;32;20081;-69
2021/09/17 08:52:39;;;;;;;6.00;5.70;;;;;;;17.31;78.90;101192.66;4424965;32;20088;-69
2021/09/17 08:55:05;;;;;;;5.90;5.60;;;;;;;17.20;79.28;101189.97;4418637;32;20399;-69
2021/09/17 08:57:30;;;;;;;5.45;5.15;;;;;;;17.27;80.60;101193.00;4426709;32;20194;-69
2021/09/17 08:59:55;;;;;;;6.70;6.30;;;;;;;17.32;79.49;101182.91;4408773;32;20486;-69
2021/09/17 09:02:28;;;;;;;6.00;5.70;;;;;;;17.26;79.22;101193.94;4433725;32;20076;-69
2021/09/17 09:05:06;;;;;;;6.35;6.05;;;;;;;17.37;78.75;101199.34;4421996;32;20133;-69
2021/09/17 09:07:38;;;;;;;6.03;5.72;;;;;;;17.37;77.67;101183.41;4435488;32;20368;-69
2021/09/17 09:10:05;;;;;;;7.55;6.93;;;;;;;17.60;77.85;101189.69;4412498;32;20081;-69
2021/09/17 09:12:30;;;;;;;6.22;5.82;;;;;;;17.72;77.28;101186.13;4415288;32;20068;-69
2021/09/17 09:15:12;;;;;;;6.95;6.55;;;;;;;17.96;76.37;101184.41;4421463;32;20872;-70
2021/09/17 09:17:37;;;;;;;5.68;5.37;;;;;;;18.00;75.77;101189.41;4434034;32;20281;-69
2021/09/17 09:20:29;;;;;;;7.60;7.20;;;;;;;18.15;74.35;101211.28;4408104;32;20735;-70
2021/09/17 09:23:20;;;;;;;7.35;6.95;;;;;;;18.24;72.59;101210.59;4434671;32;20073;-69
2021/09/17 09:25:53;;;;;;;6.62;6.22;;;;;;;18.38;72.39;101212.19;4416942;32;20077;-69
2021/09/17 09:28:20;;;;;;;6.40;5.90;;;;;;;18.52;71.31;101204.00;4420067;32;20554;-69
2021/09/17 09:30:45;;;;;;;6.85;6.35;;;;;;;18.85;70.54;101209.47;4412120;32;20076;-70
2021/09/17 09:33:21;;;;;;;7.18;6.62;;;;;;;18.99;69.29;101209.22;4402983;32;20068;-71
2021/09/17 09:35:53;;;;;;;7.47;6.78;;;;;;;18.80;68.67;101207.16;4410652;32;20103;-69
2021/09/17 09:38:40;;;;;;;5.87;5.53;;;;;;;19.04;69.61;101208.84;4413877;32;20439;-69
2021/09/17 09:41:07;;;;;;;5.87;5.57;;;;;;;18.90;68.79;101205.50;4408259;32;20581;-69
2021/09/17 09:43:38;;;;;;;6.35;5.95;;;;;;;18.82;70.41;101199.94;4424900;32;20072;-69
2021/09/17 09:46:25;;;;;;;7.15;6.82;;;;;;;18.71;70.11;101207.88;4408859;32;20384;-70
2021/09/17 09:49:02;;;;;;;6.57;6.07;;;;;;;18.54;69.67;101209.16;4430816;32;20085;-71
2021/09/17 09:51:56;;;;;;;6.80;6.28;;;;;;;18.28;70.47;101205.88;4437114;32;20135;-69
2021/09/17 09:54:23;;;;;;;6.22;5.85;;;;;;;18.57;70.07;101206.28;4432048;32;20337;-69
2021/09/17 09:56:49;;;;;;;6.03;5.72;;;;;;;18.03;69.97;101077.59;4412169;32;20103;-69
2021/09/17 09:59:14;;;;;;;6.00;5.55;;;;;;;19.22;68.42;101193.22;4421001;32;20069;-69
2021/09/17 10:01:40;;;;;;;6.65;6.20;;;;;;;19.25;66.74;101204.47;4421043;32;20566;-69
2021/09/17 10:04:06;;;;;;;7.40;7.00;;;;;;;19.61;67.59;101204.25;4422617;32;20068;-71
2021/09/17 10:06:36;;;;;;;6.78;6.37;;;;;;;19.99;66.37;101206.44;4421723;32;20068;-69
2021/09/17 10:09:02;;;;;;;6.85;6.55;;;;;;;20.32;65.59;101208.03;4431413;32;20076;-69
2021/09/17 10:11:28;;;;;;;6.65;6.25;;;;;;;20.62;63.72;101208.25;4420923;32;21044;-69
2021/09/17 10:13:56;;;;;;;8.05;7.55;;;;;;;20.23;63.24;101206.19;4422988;32;20071;-69
2021/09/17 10:16:22;;;;;;;6.45;6.05;;;;;;;19.97;63.52;101186.22;4413073;32;20092;-69
2021/09/17 10:18:48;;;;;;;6.32;5.93;;;;;;;20.10;63.73;101197.53;4406063;32;20595;-69
2021/09/17 10:21:13;;;;;;;6.55;5.95;;;;;;;19.89;63.83;101195.69;4432358;32;20076;-69
2021/09/17 10:23:43;;;;;;;7.05;6.55;;;;;;;19.88;64.14;101199.31;4420106;32;20080;-69
2021/09/17 10:26:09;;;;;;;7.07;6.68;;;;;;;20.11;64.54;101199.22;4407906;32;20075;-70
2021/09/17 10:29:01;;;;;;;7.47;6.87;;;;;;;20.34;64.53;101194.59;4422328;32;20618;-69
2021/09/17 10:31:27;;;;;;;7.90;7.30;;;;;;;20.24;63.61;101191.03;4420247;32;20128;-70
2021/09/17 10:33:52;;;;;;;7.87;6.57;;;;;;;20.36;65.04;101197.13;4410666;32;20604;-70
2021/09/17 10:36:44;;;;;;;7.65;6.95;;;;;;;21.04;63.61;101192.94;4408435;32;20063;-69
2021/09/17 10:39:13;;;;;;;7.18;6.68;;;;;;;21.26;63.01;101196.37;4415877;32;21012;-69
2021/09/17 10:42:03;;;;;;;6.85;6.40;;;;;;;21.40;61.80;101193.31;4424258;32;20060;-69
2021/09/17 10:44:29;;;;;;;6.85;6.45;;;;;;;21.66;61.07;101190.13;4426420;32;20332;-70
2021/09/17 10:46:54;;;;;;;8.35;7.85;;;;;;;21.58;60.67;101185.50;4416034;32;20376;-70
2021/09/17 10:49:19;;;;;;;6.78;6.28;;;;;;;21.53;61.04;101182.41;4418022;32;20079;-70
2021/09/17 10:51:45;;;;;;;6.68;6.25;;;;;;;21.41;59.33;101186.13;4409815;32;20797;-70
2021/09/17 10:54:19;;;;;;;6.72;6.43;;;;;;;21.61;60.33;101185.22;4407346;32;20336;-69
2021/09/17 10:56:47;;;;;;;6.60;6.20;;;;;;;21.44;60.30;101193.91;4419671;32;20083;-70
2021/09/17 10:59:20;;;;;;;7.80;7.18;;;;;;;21.32;60.51;101186.00;4443301;32;21413;-70
2021/09/17 11:01:55;;;;;;;7.25;6.65;;;;;;;20.29;60.40;101020.91;4423173;32;20124;-70
2021/09/17 11:04:21;;;;;;;6.87;6.37;;;;;;;21.44;60.18;101169.88;4427052;32;20550;-70
2021/09/17 11:06:47;;;;;;;6.62;6.18;;;;;;;21.50;59.15;101178.16;4424333;32;20125;-69
2021/09/17 11:09:12;;;;;;;8.20;6.80;;;;;;;21.46;60.71;101176.75;4440553;32;20487;-70
2021/09/17 11:11:42;;;;;;;6.53;6.12;;;;;;;21.12;60.73;101163.75;4416890;32;20149;-69
2021/09/17 11:14:30;;;;;;;7.00;6.50;;;;;;;21.08;59.75;101149.00;4411426;32;20111;-70
2021/09/17 11:16:55;;;;;;;7.35;6.95;;;;;;;21.66;59.82;101169.59;4441234;32;20057;-70
2021/09/17 11:19:21;;;;;;;7.72;7.00;;;;;;;;;;4423444;32;20068;-70
2021/09/17 11:21:48;;;;;;;7.13;6.47;;;;;;;21.31;57.17;101036.66;4426915;32;20581;-70
2021/09/17 11:24:27;;;;;;;6.90;6.50;;;;;;;21.74;59.12;101162.72;4420963;32;20060;-69